createdAt,value
2018-11-23T00:00:34.616Z,6.10
2018-11-23T00:03:03.554Z,6.90
2018-11-23T00:05:32.255Z,5.73
2018-11-23T00:08:00.942Z,5.83
2018-11-23T00:10:30.907Z,5.00
2018-11-23T00:13:00.255Z,5.37
2018-11-23T00:15:28.942Z,6.00
2018-11-23T00:17:57.614Z,6.27
2018-11-23T00:20:27.499Z,5.63
2018-11-23T00:22:56.192Z,5.93
2018-11-23T00:25:25.686Z,6.33
2018-11-23T00:27:54.889Z,5.90
2018-11-23T00:30:24.791Z,5.97
2018-11-23T00:32:53.785Z,6.50
2018-11-23T00:35:23.806Z,6.67
2018-11-23T00:37:53.112Z,5.73
2018-11-23T00:40:25.095Z,5.83
2018-11-23T00:42:54.010Z,5.57
2018-11-23T00:45:22.953Z,5.73
2018-11-23T00:47:52.269Z,5.93
2018-11-23T00:50:22.059Z,6.00
2018-11-23T00:52:51.359Z,5.70
2018-11-23T00:55:21.067Z,6.30
2018-11-23T00:57:49.801Z,6.00
2018-11-23T01:00:23.564Z,6.27
2018-11-23T01:02:52.945Z,5.47
2018-11-23T01:05:21.647Z,6.07
2018-11-23T01:07:50.402Z,5.93
2018-11-23T01:10:20.357Z,6.10
2018-11-23T01:12:50.006Z,7.07
2018-11-23T01:15:18.726Z,6.17
2018-11-23T01:17:47.418Z,6.50
2018-11-23T01:20:17.759Z,6.67
2018-11-23T01:22:46.877Z,5.93
2018-11-23T01:25:16.846Z,6.60
2018-11-23T01:27:46.598Z,5.13
2018-11-23T01:30:18.342Z,5.50
2018-11-23T01:32:47.127Z,5.57
2018-11-23T01:35:15.865Z,5.47
2018-11-23T01:37:44.571Z,5.53
2018-11-23T01:40:19.365Z,5.80
2018-11-23T01:42:48.182Z,4.93
2018-11-23T01:45:17.134Z,4.83
2018-11-23T01:47:45.798Z,4.77
2018-11-23T01:50:16.826Z,5.03
2018-11-23T01:52:46.549Z,5.50
2018-11-23T01:55:15.939Z,5.57
2018-11-23T01:57:45.008Z,5.20
2018-11-23T02:00:15.598Z,5.33
2018-11-23T02:02:44.738Z,5.30
2018-11-23T02:05:13.442Z,5.03
2018-11-23T02:07:42.146Z,4.40
2018-11-23T02:10:12.172Z,4.77
2018-11-23T02:12:41.014Z,4.53
2018-11-23T02:15:14.142Z,4.40
2018-11-23T02:17:42.840Z,4.33
2018-11-23T02:20:12.816Z,3.80
2018-11-23T02:22:41.567Z,4.60
2018-11-23T02:25:10.437Z,4.73
2018-11-23T02:27:39.194Z,3.50
2018-11-23T02:30:14.647Z,3.80
2018-11-23T02:32:43.689Z,3.17
2018-11-23T02:35:12.782Z,3.13
2018-11-23T02:37:41.448Z,3.17
2018-11-23T02:40:11.389Z,3.80
2018-11-23T02:42:40.114Z,3.60
2018-11-23T02:45:11.138Z,3.67
2018-11-23T02:47:40.153Z,3.63
2018-11-23T02:50:08.965Z,3.40
2018-11-23T02:52:38.099Z,3.40
2018-11-23T02:55:07.471Z,3.50
2018-11-23T02:57:36.114Z,3.63
2018-11-23T03:00:05.585Z,3.23
2018-11-23T03:02:34.279Z,3.37
2018-11-23T03:05:02.965Z,3.23
2018-11-23T03:07:31.675Z,2.33
2018-11-23T03:10:00.377Z,3.07
2018-11-23T03:12:29.006Z,3.10
2018-11-23T03:14:57.666Z,2.50
2018-11-23T03:17:26.337Z,2.53
2018-11-23T03:19:55.016Z,2.93
2018-11-23T03:22:23.837Z,3.10
2018-11-23T03:24:52.482Z,2.50
2018-11-23T03:27:21.159Z,3.03
2018-11-23T03:29:49.826Z,2.70
2018-11-23T03:32:18.501Z,2.63
2018-11-23T03:34:47.150Z,2.50
2018-11-23T03:37:15.818Z,1.90
2018-11-23T03:39:44.505Z,2.60
2018-11-23T03:42:13.158Z,2.67
2018-11-23T03:44:41.823Z,2.03
2018-11-23T03:47:10.506Z,2.17
2018-11-23T03:49:39.182Z,2.77
2018-11-23T03:52:07.862Z,2.50
2018-11-23T03:54:36.540Z,2.60
2018-11-23T03:57:05.261Z,3.00
2018-11-23T03:59:33.922Z,3.03
2018-11-23T04:02:02.599Z,3.00
2018-11-23T04:04:31.276Z,2.77
2018-11-23T04:06:59.935Z,2.77
2018-11-23T04:09:28.620Z,3.17
2018-11-23T04:11:57.359Z,2.83
2018-11-23T04:14:26.026Z,2.90
2018-11-23T04:16:54.789Z,3.03
2018-11-23T04:19:23.666Z,2.50
2018-11-23T04:21:52.383Z,2.20
2018-11-23T04:24:21.023Z,2.57
2018-11-23T04:26:49.686Z,2.97
2018-11-23T04:29:18.335Z,1.90
2018-11-23T04:31:47.112Z,2.23
2018-11-23T04:34:15.766Z,2.07
2018-11-23T04:36:44.430Z,1.80
2018-11-23T04:39:13.078Z,2.17
2018-11-23T04:41:46.285Z,2.10
2018-11-23T04:44:10.518Z,2.43
2018-11-23T04:46:39.173Z,2.63
2018-11-23T04:49:07.857Z,2.70
2018-11-23T04:51:36.522Z,1.97
2018-11-23T04:54:05.356Z,2.00
2018-11-23T04:56:34.050Z,2.10
2018-11-23T04:59:02.695Z,2.07
2018-11-23T05:01:31.386Z,1.90
2018-11-23T05:04:00.041Z,2.50
2018-11-23T05:06:28.695Z,2.63
2018-11-23T05:08:57.342Z,2.50
2018-11-23T05:11:26.095Z,1.90
2018-11-23T05:13:54.746Z,2.20
2018-11-23T05:16:23.422Z,1.83
2018-11-23T05:18:52.330Z,2.23
2018-11-23T05:21:21.025Z,2.70
2018-11-23T05:23:49.693Z,2.20
2018-11-23T05:26:18.345Z,2.47
2018-11-23T05:28:46.997Z,2.23
2018-11-23T05:31:15.684Z,2.17
2018-11-23T05:33:44.406Z,2.70
2018-11-23T05:36:13.094Z,2.17
2018-11-23T05:38:41.754Z,2.03
2018-11-23T05:41:10.439Z,1.93
2018-11-23T05:43:39.135Z,2.67
2018-11-23T05:46:07.818Z,2.30
2018-11-23T05:48:36.470Z,2.90
2018-11-23T05:51:05.494Z,2.37
2018-11-23T05:53:34.155Z,2.07
2018-11-23T05:56:02.822Z,2.43
2018-11-23T05:58:31.515Z,2.37
2018-11-23T06:01:00.211Z,2.23
2018-11-23T06:03:28.840Z,2.80
2018-11-23T06:05:57.489Z,2.70
2018-11-23T06:08:26.125Z,2.63
2018-11-23T06:10:54.857Z,2.43
2018-11-23T06:13:23.495Z,2.43
2018-11-23T06:15:52.138Z,2.53
2018-11-23T06:18:20.840Z,2.97
2018-11-23T06:20:49.558Z,3.30
2018-11-23T06:23:18.238Z,2.70
2018-11-23T06:25:52.746Z,2.77
2018-11-23T06:28:22.219Z,2.97
2018-11-23T06:30:50.958Z,2.77
2018-11-23T06:33:30.646Z,2.77
2018-11-23T06:35:59.369Z,2.53
2018-11-23T06:38:28.068Z,2.60
2018-11-23T06:40:56.801Z,2.10
2018-11-23T06:43:25.537Z,2.77
2018-11-23T06:45:54.310Z,2.47
2018-11-23T06:48:22.990Z,2.70
2018-11-23T06:50:51.697Z,2.03
2018-11-23T06:53:20.357Z,2.70
2018-11-23T06:55:49.043Z,2.67
2018-11-23T06:58:17.720Z,2.80
2018-11-23T07:00:47.354Z,3.20
2018-11-23T07:03:16.070Z,2.80
2018-11-23T07:05:44.718Z,2.70
2018-11-23T07:08:13.394Z,3.20
2018-11-23T07:10:42.104Z,2.47
2018-11-23T07:13:10.835Z,2.40
2018-11-23T07:15:39.766Z,2.33
2018-11-23T07:18:08.554Z,2.57
2018-11-23T07:20:37.218Z,2.70
2018-11-23T07:23:06.139Z,2.57
2018-11-23T07:25:34.842Z,2.30
2018-11-23T07:28:03.505Z,2.00
2018-11-23T07:30:32.218Z,2.03
2018-11-23T07:33:00.883Z,2.00
2018-11-23T07:35:29.559Z,2.50
2018-11-23T07:37:58.220Z,1.70
2018-11-23T07:40:40.518Z,1.87
2018-11-23T07:43:09.169Z,1.87
2018-11-23T07:45:38.759Z,1.80
2018-11-23T07:48:07.874Z,2.07
2018-11-23T07:50:36.579Z,2.03
2018-11-23T07:53:05.393Z,2.40
2018-11-23T07:55:34.059Z,1.77
2018-11-23T07:58:02.882Z,1.80
2018-11-23T08:00:31.578Z,1.60
2018-11-23T08:03:00.221Z,1.70
2018-11-23T08:05:28.902Z,2.10
2018-11-23T08:07:57.571Z,2.10
2018-11-23T08:10:25.498Z,1.83
2018-11-23T08:12:54.196Z,2.10
2018-11-23T08:15:24.348Z,1.73
2018-11-23T08:17:53.070Z,1.80
2018-11-23T08:20:22.852Z,1.80
2018-11-23T08:22:51.546Z,2.00
2018-11-23T08:25:21.362Z,1.87
2018-11-23T08:27:51.151Z,1.63
2018-11-23T08:30:22.736Z,1.90
2018-11-23T08:32:51.458Z,1.60
2018-11-23T08:35:20.179Z,1.50
2018-11-23T08:37:48.854Z,1.83
2018-11-23T08:40:20.668Z,1.50
2018-11-23T08:42:50.254Z,1.57
2018-11-23T08:45:20.780Z,1.70
2018-11-23T08:47:49.494Z,1.30
2018-11-23T08:50:21.707Z,1.20
2018-11-23T08:52:50.407Z,1.43
2018-11-23T08:55:19.476Z,1.07
2018-11-23T08:57:48.166Z,1.10
2018-11-23T09:00:21.785Z,1.00
2018-11-23T09:02:51.805Z,0.87
2018-11-23T09:05:20.487Z,0.80
2018-11-23T09:07:50.414Z,1.07
2018-11-23T09:10:20.515Z,0.97
2018-11-23T09:12:52.132Z,1.00
2018-11-23T09:15:20.847Z,1.27
2018-11-23T09:17:49.578Z,0.93
2018-11-23T09:20:18.679Z,1.00
2018-11-23T09:22:47.381Z,1.30
2018-11-23T09:25:17.490Z,1.07
2018-11-23T09:27:46.264Z,1.20
2018-11-23T09:30:19.039Z,1.37
2018-11-23T09:32:48.530Z,1.73
2018-11-23T09:35:17.184Z,1.50
2018-11-23T09:37:46.250Z,1.50
2018-11-23T09:40:19.456Z,1.37
2018-11-23T09:42:48.301Z,1.77
2018-11-23T09:45:18.466Z,1.10
2018-11-23T09:47:48.279Z,1.13
2018-11-23T09:50:18.342Z,1.00
2018-11-23T09:52:48.063Z,1.10
2018-11-23T09:55:17.017Z,0.90
2018-11-23T09:57:45.770Z,1.00
2018-11-23T10:00:17.738Z,1.00
2018-11-23T10:02:47.293Z,1.30
2018-11-23T10:05:19.201Z,1.63
2018-11-23T10:07:49.365Z,1.17
2018-11-23T10:10:19.012Z,1.40
2018-11-23T10:12:47.699Z,1.13
2018-11-23T10:15:17.378Z,1.10
2018-11-23T10:17:46.061Z,1.20
2018-11-23T10:20:18.697Z,1.70
2018-11-23T10:22:47.803Z,1.20
2018-11-23T10:25:18.034Z,1.20
2018-11-23T10:27:47.036Z,1.20
2018-11-23T10:30:18.447Z,1.00
2018-11-23T10:32:48.233Z,1.00
2018-11-23T10:35:16.983Z,0.97
2018-11-23T10:37:46.793Z,1.17
2018-11-23T10:40:18.869Z,1.10
2018-11-23T10:42:47.595Z,1.00
2018-11-23T10:45:19.162Z,1.10
2018-11-23T10:47:48.437Z,1.10
2018-11-23T10:50:19.265Z,1.17
2018-11-23T10:52:48.111Z,1.20
2018-11-23T10:55:18.869Z,0.90
2018-11-23T10:57:47.854Z,1.03
2018-11-23T11:00:22.992Z,1.00
2018-11-23T11:02:58.126Z,1.20
2018-11-23T11:05:29.486Z,1.20
2018-11-23T11:08:01.654Z,1.20
2018-11-23T11:10:30.361Z,1.10
2018-11-23T11:12:59.095Z,1.30
2018-11-23T11:15:27.791Z,1.47
2018-11-23T11:17:56.502Z,1.50
2018-11-23T11:20:25.177Z,0.80
2018-11-23T11:22:53.849Z,0.90
2018-11-23T11:25:22.637Z,0.93
2018-11-23T11:27:51.325Z,1.00
2018-11-23T11:30:20.559Z,1.00
2018-11-23T11:32:49.752Z,1.13
2018-11-23T11:35:18.431Z,0.80
2018-11-23T11:37:47.542Z,0.90
2018-11-23T11:40:17.661Z,0.90
2018-11-23T11:42:46.833Z,0.77
2018-11-23T11:45:17.695Z,0.80
2018-11-23T11:47:47.483Z,0.90
2018-11-23T11:50:16.307Z,0.80
2018-11-23T11:52:46.347Z,0.83
2018-11-23T11:55:17.265Z,0.73
2018-11-23T11:57:46.638Z,0.87
2018-11-23T12:00:19.615Z,0.70
2018-11-23T12:02:48.421Z,0.70
2018-11-23T12:05:17.112Z,0.43
2018-11-23T12:07:45.847Z,0.60
2018-11-23T12:10:16.760Z,0.73
2018-11-23T12:12:45.434Z,0.70
2018-11-23T12:15:14.949Z,1.10
2018-11-23T12:17:43.692Z,0.70
2018-11-23T12:20:16.193Z,0.70
2018-11-23T12:22:45.362Z,0.70
2018-11-23T12:25:14.047Z,0.60
2018-11-23T12:27:42.704Z,0.67
2018-11-23T12:30:13.597Z,0.60
2018-11-23T12:32:43.080Z,0.40
2018-11-23T12:35:12.887Z,0.70
2018-11-23T12:37:41.571Z,0.67
2018-11-23T12:40:11.780Z,0.60
2018-11-23T12:42:40.844Z,0.57
2018-11-23T12:45:11.942Z,0.70
2018-11-23T12:47:40.667Z,0.60
2018-11-23T12:50:11.306Z,0.60
2018-11-23T12:52:39.986Z,0.73
2018-11-23T12:55:09.203Z,0.80
2018-11-23T12:57:37.970Z,0.70
2018-11-23T13:00:10.917Z,0.60
2018-11-23T13:02:39.590Z,0.80
2018-11-23T13:05:08.282Z,1.10
2018-11-23T13:07:36.949Z,0.90
2018-11-23T13:10:06.471Z,0.93
2018-11-23T13:12:35.134Z,0.83
2018-11-23T13:15:04.034Z,0.90
2018-11-23T13:17:32.698Z,0.67
2018-11-23T13:20:01.372Z,1.13
2018-11-23T13:22:30.067Z,0.80
2018-11-23T13:24:58.790Z,0.70
2018-11-23T13:27:27.522Z,0.70
2018-11-23T13:29:56.161Z,1.13
2018-11-23T13:32:24.802Z,0.90
2018-11-23T13:34:53.493Z,1.17
2018-11-23T13:37:22.155Z,1.07
2018-11-23T13:39:50.821Z,1.00
2018-11-23T13:42:19.512Z,1.70
2018-11-23T13:44:48.184Z,1.43
2018-11-23T13:47:16.894Z,1.93
2018-11-23T13:49:45.583Z,1.97
2018-11-23T13:52:14.243Z,2.60
2018-11-23T13:54:42.911Z,3.00
2018-11-23T13:57:11.583Z,3.10
2018-11-23T13:59:40.285Z,3.07
2018-11-23T14:02:08.965Z,3.20
2018-11-23T14:04:37.625Z,2.90
2018-11-23T14:07:06.319Z,4.17
2018-11-23T14:09:34.990Z,2.50
2018-11-23T14:12:03.667Z,2.60
2018-11-23T14:14:32.363Z,3.00
2018-11-23T14:17:01.032Z,3.20
2018-11-23T14:19:29.687Z,3.23
2018-11-23T14:21:58.438Z,2.80
2018-11-23T14:24:27.094Z,3.00
2018-11-23T14:26:55.778Z,2.80
2018-11-23T14:29:25.401Z,3.47
2018-11-23T14:31:54.153Z,3.70
2018-11-23T14:34:22.863Z,2.80
2018-11-23T14:36:51.714Z,3.33
2018-11-23T14:39:20.374Z,3.50
2018-11-23T14:41:49.024Z,2.60
2018-11-23T14:44:17.691Z,4.17
2018-11-23T14:46:46.375Z,2.90
2018-11-23T14:49:15.130Z,3.50
2018-11-23T14:51:43.808Z,3.33
2018-11-23T14:54:12.537Z,3.17
2018-11-23T14:56:41.188Z,2.80
2018-11-23T14:59:09.830Z,2.87
2018-11-23T15:01:38.486Z,2.80
2018-11-23T15:04:07.170Z,3.00
2018-11-23T15:06:35.856Z,3.30
2018-11-23T15:09:07.123Z,3.23
2018-11-23T15:11:35.937Z,2.67
2018-11-23T15:14:04.846Z,3.67
2018-11-23T15:16:33.498Z,3.60
2018-11-23T15:19:02.806Z,4.07
2018-11-23T15:21:31.478Z,3.40
2018-11-23T15:24:00.969Z,3.33
2018-11-23T15:26:29.002Z,2.43
2018-11-23T15:28:57.654Z,2.80
2018-11-23T15:31:26.343Z,2.83
2018-11-23T15:33:55.003Z,2.07
2018-11-23T15:36:23.693Z,1.57
2018-11-23T15:38:52.370Z,1.57
2018-11-23T15:41:21.083Z,2.73
2018-11-23T15:43:49.741Z,2.53
2018-11-23T15:46:19.146Z,2.40
2018-11-23T15:48:47.811Z,1.90
2018-11-23T15:51:16.489Z,2.73
2018-11-23T15:53:45.147Z,2.73
2018-11-23T15:56:13.859Z,3.33
2018-11-23T15:58:42.514Z,3.73
2018-11-23T16:01:11.174Z,3.13
2018-11-23T16:03:39.854Z,2.37
2018-11-23T16:06:08.518Z,2.73
2018-11-23T16:08:37.201Z,1.87
2018-11-23T16:11:05.922Z,1.73
2018-11-23T16:13:34.590Z,1.90
2018-11-23T16:16:03.285Z,2.53
2018-11-23T16:18:32.004Z,2.50
2018-11-23T16:21:00.666Z,1.60
2018-11-23T16:23:29.347Z,1.57
2018-11-23T16:25:58.084Z,1.63
2018-11-23T16:28:26.757Z,1.70
2018-11-23T16:30:55.487Z,2.37
2018-11-23T16:33:24.945Z,2.93
2018-11-23T16:35:54.537Z,2.63
2018-11-23T16:38:23.982Z,3.17
2018-11-23T16:40:55.109Z,2.73
2018-11-23T16:43:23.833Z,3.27
2018-11-23T16:45:52.513Z,3.80
2018-11-23T16:48:21.665Z,2.63
2018-11-23T16:50:50.958Z,3.53
2018-11-23T16:53:19.650Z,2.80
2018-11-23T16:55:48.385Z,3.60
2018-11-23T16:58:17.063Z,4.97
2018-11-23T17:00:46.961Z,4.00
2018-11-23T17:03:18.087Z,4.10
2018-11-23T17:05:51.077Z,3.77
2018-11-23T17:08:19.786Z,4.27
2018-11-23T17:10:48.480Z,4.40
2018-11-23T17:13:17.169Z,2.83
2018-11-23T17:15:46.853Z,3.80
2018-11-23T17:18:15.663Z,3.40
2018-11-23T17:20:44.851Z,4.20
2018-11-23T17:23:13.791Z,2.90
2018-11-23T17:25:42.468Z,4.27
2018-11-23T17:28:11.794Z,3.13
2018-11-23T17:30:40.629Z,3.77
2018-11-23T17:33:09.311Z,12.17
2018-11-23T17:35:38.019Z,12.43
2018-11-23T17:38:06.791Z,9.30
2018-11-23T17:40:37.792Z,8.30
2018-11-23T17:43:06.796Z,4.97
2018-11-23T17:45:35.706Z,22.10
2018-11-23T17:48:04.651Z,6.10
2018-11-23T17:50:34.522Z,7.00
2018-11-23T17:53:03.198Z,5.40
2018-11-23T17:55:31.878Z,6.10
2018-11-23T17:58:00.548Z,5.47
2018-11-23T18:00:30.477Z,6.50
2018-11-23T18:03:00.254Z,7.20
2018-11-23T18:05:30.321Z,7.30
2018-11-23T18:07:59.590Z,6.47
2018-11-23T18:10:29.600Z,7.03
2018-11-23T18:12:58.896Z,7.00
2018-11-23T18:15:28.790Z,5.87
2018-11-23T18:17:58.331Z,6.10
2018-11-23T18:20:27.899Z,6.43
2018-11-23T18:22:57.247Z,5.23
2018-11-23T18:25:29.135Z,6.97
2018-11-23T18:28:01.864Z,7.37
2018-11-23T18:30:33.418Z,8.73
2018-11-23T18:33:03.448Z,9.93
2018-11-23T18:35:32.178Z,10.43
2018-11-23T18:38:00.875Z,9.93
2018-11-23T18:40:36.507Z,10.60
2018-11-23T18:42:58.378Z,8.93
2018-11-23T18:45:27.037Z,6.83
2018-11-23T18:47:55.803Z,7.30
2018-11-23T18:50:24.464Z,8.83
2018-11-23T18:52:53.131Z,9.77
2018-11-23T18:55:21.885Z,7.40
2018-11-23T18:57:50.610Z,7.37
2018-11-23T19:00:19.310Z,9.17
2018-11-23T19:02:48.255Z,10.53
2018-11-23T19:05:20.187Z,9.93
2018-11-23T19:07:48.865Z,7.83
2018-11-23T19:10:17.599Z,5.53
2018-11-23T19:12:46.337Z,5.37
2018-11-23T19:15:25.130Z,3.27
2018-11-23T19:17:46.639Z,2.67
2018-11-23T19:20:18.361Z,3.70
2018-11-23T19:22:48.843Z,5.83
2018-11-23T19:25:17.585Z,6.10
2018-11-23T19:27:46.265Z,6.70
2018-11-23T19:30:16.207Z,6.63
2018-11-23T19:32:44.884Z,5.33
2018-11-23T19:35:13.567Z,3.73
2018-11-23T19:37:42.237Z,2.97
2018-11-23T19:40:17.498Z,4.27
2018-11-23T19:42:46.358Z,4.67
2018-11-23T19:45:16.656Z,5.17
2018-11-23T19:47:45.395Z,5.13
2018-11-23T19:50:16.122Z,4.17
2018-11-23T19:52:44.877Z,5.60
2018-11-23T19:55:14.414Z,5.53
2018-11-23T19:57:43.168Z,4.67
2018-11-23T20:00:20.147Z,4.43
2018-11-23T20:02:48.888Z,5.27
2018-11-23T20:05:17.655Z,5.07
2018-11-23T20:07:47.325Z,4.73
2018-11-23T20:10:17.660Z,4.00
2018-11-23T20:12:47.288Z,3.73
2018-11-23T20:15:17.019Z,4.33
2018-11-23T20:17:45.773Z,3.30
2018-11-23T20:20:15.358Z,3.47
2018-11-23T20:22:44.200Z,3.33
2018-11-23T20:25:14.105Z,3.53
2018-11-23T20:27:42.836Z,3.80
2018-11-23T20:30:14.543Z,3.90
2018-11-23T20:32:43.237Z,2.87
2018-11-23T20:35:13.053Z,3.10
2018-11-23T20:37:41.721Z,3.67
2018-11-23T20:40:13.822Z,3.67
2018-11-23T20:42:42.542Z,4.07
2018-11-23T20:45:12.042Z,4.10
2018-11-23T20:47:40.791Z,4.07
2018-11-23T20:50:13.567Z,4.50
2018-11-23T20:52:42.286Z,6.00
2018-11-23T20:55:12.056Z,5.60
2018-11-23T20:57:40.735Z,6.13
2018-11-23T21:00:13.843Z,7.97
2018-11-23T21:02:42.678Z,7.37
2018-11-23T21:05:12.531Z,8.00
2018-11-23T21:07:41.235Z,7.37
2018-11-23T21:10:21.379Z,7.03
2018-11-23T21:12:50.157Z,7.50
2018-11-23T21:15:20.199Z,6.70
2018-11-23T21:17:48.858Z,6.40
2018-11-23T21:20:17.558Z,5.57
2018-11-23T21:22:46.240Z,5.23
2018-11-23T21:25:14.922Z,5.17
2018-11-23T21:27:43.578Z,4.80
2018-11-23T21:30:17.100Z,5.17
2018-11-23T21:32:45.781Z,5.53
2018-11-23T21:35:14.623Z,5.57
2018-11-23T21:37:43.322Z,5.03
2018-11-23T21:40:13.290Z,4.70
2018-11-23T21:42:42.006Z,5.37
2018-11-23T21:45:12.002Z,4.70
2018-11-23T21:47:40.668Z,4.67
2018-11-23T21:50:24.596Z,4.67
2018-11-23T21:52:46.409Z,4.20
2018-11-23T21:55:17.373Z,5.60
2018-11-23T21:57:46.141Z,4.70
2018-11-23T22:00:15.519Z,4.23
2018-11-23T22:02:44.309Z,4.30
2018-11-23T22:05:13.111Z,4.43
2018-11-23T22:07:41.777Z,5.47
2018-11-23T22:10:12.668Z,9.77
2018-11-23T22:12:41.474Z,5.53
2018-11-23T22:15:11.652Z,4.70
2018-11-23T22:17:40.342Z,4.80
2018-11-23T22:20:10.726Z,4.20
2018-11-23T22:22:39.430Z,4.50
2018-11-23T22:25:12.439Z,4.43
2018-11-23T22:27:41.235Z,4.57
2018-11-23T22:30:19.037Z,4.67
2018-11-23T22:32:47.807Z,5.10
2018-11-23T22:35:16.556Z,4.10
2018-11-23T22:37:45.290Z,4.53
2018-11-23T22:40:16.111Z,4.33
2018-11-23T22:42:45.906Z,5.43
2018-11-23T22:45:15.481Z,6.73
2018-11-23T22:47:44.265Z,11.50
2018-11-23T22:50:15.066Z,8.17
2018-11-23T22:52:43.732Z,5.17
2018-11-23T22:55:13.230Z,4.00
2018-11-23T22:57:41.891Z,3.70
2018-11-23T23:00:32.815Z,3.73
2018-11-23T23:03:01.529Z,4.27
2018-11-23T23:05:30.294Z,3.77
2018-11-23T23:07:58.956Z,3.90
2018-11-23T23:10:27.653Z,4.03
2018-11-23T23:12:56.319Z,4.03
2018-11-23T23:15:25.011Z,5.20
2018-11-23T23:17:53.696Z,5.60
2018-11-23T23:20:23.141Z,5.50
2018-11-23T23:22:51.871Z,6.07
2018-11-23T23:25:20.587Z,5.87
2018-11-23T23:27:49.254Z,9.63
2018-11-23T23:30:18.523Z,8.73
2018-11-23T23:32:48.036Z,7.33
2018-11-23T23:35:17.403Z,7.43
2018-11-23T23:37:46.088Z,4.93
2018-11-23T23:40:15.890Z,4.90
2018-11-23T23:42:44.647Z,5.70
2018-11-23T23:45:15.110Z,4.90
2018-11-23T23:47:43.790Z,4.20
2018-11-23T23:50:15.382Z,5.50
2018-11-23T23:52:44.071Z,4.47
2018-11-23T23:55:12.857Z,4.10
2018-11-23T23:57:42.629Z,3.37
